Time;durP1;ratioP1;P1;durP2;ratioP2;P2;SDS_P1;SDS_P2;PMS_P1;PMS_P2;Temp;Humidity;BMP_temperature;BMP_pressure;BME280_temperature;BME280_humidity;BME280_pressure;Samples;Min_cycle;Max_cycle;Signal;HPM_P1;HPM_P2
2022/10/17 00:01:26;;;;;;;1.92;0.10;;;;;;;14.29;100.00;100247.31;5041611;28;20029;-59
2022/10/17 00:03:51;;;;;;;5.70;0.50;;;;;;;14.28;100.00;100241.19;5032295;28;20086;-58
2022/10/17 00:06:17;;;;;;;2.60;0.10;;;;;;;14.30;100.00;100248.94;5041655;28;20028;-59
2022/10/17 00:08:43;;;;;;;1.45;0.13;;;;;;;14.29;100.00;100234.81;5039549;28;20022;-58
2022/10/17 00:11:17;;;;;;;9.88;0.65;;;;;;;14.35;100.00;100244.59;5045857;28;20020;-56
2022/10/17 00:13:43;;;;;;;5.45;1.70;;;;;;;14.30;100.00;100244.44;5041609;28;20297;-56
2022/10/17 00:16:09;;;;;;;0.70;0.65;;;;;;;14.30;100.00;100255.13;5035207;28;20061;-58
2022/10/17 00:18:34;;;;;;;2.50;0.50;;;;;;;14.33;100.00;100249.34;5039213;28;20536;-58
2022/10/17 00:21:00;;;;;;;2.10;0.73;;;;;;;14.37;100.00;100257.69;5037739;28;20025;-59
2022/10/17 00:23:29;;;;;;;2.45;0.40;;;;;;;14.40;100.00;100262.59;5042638;28;20040;-56
2022/10/17 00:26:04;;;;;;;0.73;0.52;;;;;;;14.48;100.00;100275.66;5039049;28;20032;-55
2022/10/17 00:28:30;;;;;;;5.55;0.40;;;;;;;14.48;100.00;100289.00;5039402;28;20390;-58
2022/10/17 00:31:01;;;;;;;3.28;0.40;;;;;;;14.55;100.00;100286.28;5039679;28;20036;-58
2022/10/17 00:33:27;;;;;;;2.67;1.10;;;;;;;14.55;100.00;100276.41;5041191;28;20037;-58
2022/10/17 00:36:14;;;;;;;4.63;0.40;;;;;;;14.53;100.00;100267.84;5035333;28;20033;-59
2022/10/17 00:38:42;;;;;;;3.17;0.50;;;;;;;14.54;100.00;100268.66;5038502;28;20029;-59
2022/10/17 00:41:09;;;;;;;2.92;0.73;;;;;;;14.63;100.00;100277.16;5043497;28;20583;-58
2022/10/17 00:43:51;;;;;;;5.65;0.93;;;;;;;14.71;100.00;100285.66;5038200;28;20025;-55
2022/10/17 00:46:17;;;;;;;1.50;0.40;;;;;;;14.73;100.00;100272.94;5036730;28;20072;-58
2022/10/17 00:48:43;;;;;;;5.68;0.73;;;;;;;14.74;100.00;100263.91;5037577;28;20474;-59
2022/10/17 00:51:08;;;;;;;5.43;0.98;;;;;;;14.68;100.00;100263.97;5024145;28;20629;-59
2022/10/17 00:53:35;;;;;;;0.93;0.10;;;;;;;14.55;100.00;100278.28;5034738;28;20032;-59
2022/10/17 00:56:01;;;;;;;3.08;0.95;;;;;;;14.47;100.00;100274.00;5036235;28;20514;-52
2022/10/17 00:58:26;;;;;;;2.47;0.38;;;;;;;14.44;100.00;100282.47;5042660;28;20033;-58
2022/10/17 01:00:52;;;;;;;2.58;0.30;;;;;;;14.40;100.00;100283.94;5034109;28;20335;-58
2022/10/17 01:03:17;;;;;;;2.00;1.23;;;;;;;14.38;100.00;100294.03;5038214;28;20554;-54
2022/10/17 01:05:43;;;;;;;2.83;1.65;;;;;;;14.36;100.00;100298.75;5040649;28;20033;-59
2022/10/17 01:08:09;;;;;;;2.40;0.10;;;;;;;14.29;100.00;100308.66;5038199;28;20033;-57
2022/10/17 01:11:09;;;;;;;3.58;0.40;;;;;;;14.27;100.00;100313.41;5037243;28;20116;-57
2022/10/17 01:13:40;;;;;;;3.70;0.45;;;;;;;14.32;100.00;100302.88;5037434;28;20095;-57
2022/10/17 01:16:06;;;;;;;3.70;0.32;;;;;;;14.32;100.00;100313.56;5033778;28;20396;-56
2022/10/17 01:18:31;;;;;;;2.70;0.35;;;;;;;14.29;100.00;100319.34;5036467;28;20048;-56
2022/10/17 01:21:41;;;;;;;10.48;0.85;;;;;;;14.23;100.00;100304.22;5041413;28;20191;-57
2022/10/17 01:24:18;;;;;;;1.45;0.22;;;;;;;14.09;100.00;100309.63;5040186;28;20036;-59
2022/10/17 01:26:44;;;;;;;6.00;0.52;;;;;;;13.99;100.00;100309.31;5038908;28;20017;-57
2022/10/17 01:29:29;;;;;;;1.92;0.30;;;;;;;13.98;100.00;100305.03;5035022;28;20094;-59
2022/10/17 01:32:09;;;;;;;5.13;0.45;;;;;;;13.97;100.00;100316.75;5035494;28;20032;-53
2022/10/17 01:34:47;;;;;;;2.08;0.30;;;;;;;13.92;100.00;100324.56;5037750;28;20033;-59
2022/10/17 01:37:22;;;;;;;4.88;0.80;;;;;;;13.91;100.00;100330.91;5041250;28;20057;-55
2022/10/17 01:40:09;;;;;;;2.15;1.42;;;;;;;13.92;100.00;100338.69;5041913;28;20036;-58
2022/10/17 01:42:56;;;;;;;3.75;0.60;;;;;;;13.93;100.00;100336.84;5053632;28;20375;-58
2022/10/17 01:45:30;;;;;;;0.30;0.20;;;;;;;13.92;100.00;100332.56;5040458;28;20025;-58
2022/10/17 01:48:00;;;;;;;3.03;1.35;;;;;;;13.88;100.00;100345.50;5036629;28;20099;-56
2022/10/17 01:50:33;;;;;;;3.80;0.28;;;;;;;13.87;100.00;100337.72;5041620;28;20040;-59
2022/10/17 01:53:03;;;;;;;6.18;1.17;;;;;;;13.83;100.00;100345.31;5039333;28;20081;-59
2022/10/17 01:55:39;;;;;;;3.70;0.45;;;;;;;13.88;100.00;100342.81;5038956;28;20577;-60
2022/10/17 01:58:14;;;;;;;7.57;0.88;;;;;;;13.82;100.00;100335.69;5035205;28;20079;-59
2022/10/17 02:00:42;;;;;;;4.82;0.40;;;;;;;13.83;100.00;100339.97;5033056;28;20406;-60
2022/10/17 02:03:14;;;;;;;2.22;1.00;;;;;;;13.87;100.00;100329.72;5040582;28;20048;-58
2022/10/17 02:05:42;;;;;;;4.63;0.30;;;;;;;13.87;100.00;100335.88;5039283;28;20056;-58
2022/10/17 02:08:07;;;;;;;12.20;0.65;;;;;;;13.78;100.00;100333.69;5035436;28;20033;-58
2022/10/17 02:10:50;;;;;;;3.25;0.38;;;;;;;13.74;100.00;100334.09;5035444;28;20482;-56
2022/10/17 02:13:26;;;;;;;2.67;0.28;;;;;;;13.72;100.00;100351.34;5035321;28;20037;-53
2022/10/17 02:16:16;;;;;;;3.20;0.30;;;;;;;13.71;100.00;100360.38;5044614;28;20052;-57
2022/10/17 02:19:10;;;;;;;3.65;0.10;;;;;;;13.69;100.00;100341.94;5040234;28;20120;-59
2022/10/17 02:21:52;;;;;;;3.13;1.00;;;;;;;13.73;100.00;100347.63;5051958;28;20029;-59
2022/10/17 02:24:40;;;;;;;1.20;0.35;;;;;;;13.78;100.00;100352.31;5038007;28;20397;-57
2022/10/17 02:27:10;;;;;;;2.33;0.20;;;;;;;13.80;100.00;100353.75;5027888;28;20033;-58
2022/10/17 02:30:02;;;;;;;4.85;0.30;;;;;;;13.82;100.00;100372.19;5039940;28;20025;-58
2022/10/17 02:32:42;;;;;;;4.97;0.65;;;;;;;13.83;100.00;100384.47;5038843;28;20744;-58
2022/10/17 02:35:12;;;;;;;5.18;0.28;;;;;;;13.82;100.00;100393.53;5039753;28;20039;-57
2022/10/17 02:37:39;;;;;;;4.97;0.32;;;;;;;13.81;100.00;100398.03;5037780;28;20094;-55
2022/10/17 02:40:07;;;;;;;0.95;0.43;;;;;;;13.77;100.00;100380.00;5047941;28;20164;-58
2022/10/17 02:42:34;;;;;;;3.90;0.82;;;;;;;13.80;100.00;100393.72;5040204;28;20036;-56
2022/10/17 02:45:01;;;;;;;1.33;0.13;;;;;;;13.86;100.00;100392.88;5036572;28;20025;-56
2022/10/17 02:47:36;;;;;;;7.45;0.68;;;;;;;13.89;100.00;100379.13;5041774;28;20028;-52
2022/10/17 02:50:02;;;;;;;3.45;0.35;;;;;;;13.84;100.00;100378.94;5040220;28;20079;-58
2022/10/17 02:52:39;;;;;;;5.35;0.70;;;;;;;13.85;100.00;100380.56;5020034;28;20025;-60
2022/10/17 02:55:21;;;;;;;4.25;0.10;;;;;;;13.86;100.00;100362.72;5036553;28;20082;-58
2022/10/17 02:57:49;;;;;;;1.85;0.50;;;;;;;13.85;100.00;100372.56;5042050;28;20032;-57
2022/10/17 03:00:17;;;;;;;5.38;1.35;;;;;;;13.83;100.00;100365.81;5038262;28;20040;-57
2022/10/17 03:02:43;;;;;;;2.65;0.85;;;;;;;13.79;100.00;100351.31;5042570;28;20041;-53
2022/10/17 03:05:12;;;;;;;9.05;0.47;;;;;;;13.81;100.00;100354.56;5028262;28;20030;-57
2022/10/17 03:07:37;;;;;;;1.85;0.30;;;;;;;13.81;100.00;100350.06;5035124;28;20442;-57
2022/10/17 03:10:03;;;;;;;3.22;0.30;;;;;;;13.83;100.00;100352.50;5042859;28;20028;-58
2022/10/17 03:12:29;;;;;;;5.25;1.48;;;;;;;13.82;100.00;100353.53;5035589;28;20063;-54
2022/10/17 03:14:54;;;;;;;1.52;0.40;;;;;;;13.81;100.00;100352.72;5040298;28;20482;-58
2022/10/17 03:17:19;;;;;;;3.08;0.73;;;;;;;13.78;100.00;100349.66;5038893;28;20379;-56
2022/10/17 03:19:45;;;;;;;1.25;0.10;;;;;;;13.74;100.00;100339.44;5039311;28;20029;-58
2022/10/17 03:22:11;;;;;;;3.40;0.93;;;;;;;13.73;100.00;100336.97;5036017;28;20025;-57
2022/10/17 03:24:36;;;;;;;2.75;0.20;;;;;;;13.72;100.00;100338.03;5039864;28;20028;-58
2022/10/17 03:27:01;;;;;;;7.20;0.40;;;;;;;13.70;100.00;100343.56;5041557;28;20044;-56
2022/10/17 03:29:27;;;;;;;3.97;0.20;;;;;;;13.73;100.00;100343.16;5040912;28;20029;-58
2022/10/17 03:31:52;;;;;;;5.43;0.98;;;;;;;13.71;100.00;100342.53;5039792;28;20166;-54
2022/10/17 03:34:18;;;;;;;2.28;0.35;;;;;;;13.70;100.00;100354.22;5033143;28;20028;-57
2022/10/17 03:36:44;;;;;;;3.28;0.38;;;;;;;13.67;100.00;100338.66;5037457;28;20033;-59
2022/10/17 03:39:09;;;;;;;4.90;1.42;;;;;;;13.61;100.00;100331.53;5043390;28;20029;-57
2022/10/17 03:41:34;;;;;;;7.72;0.88;;;;;;;13.62;100.00;100335.00;5032077;28;20032;-58
2022/10/17 03:44:00;;;;;;;2.28;0.65;;;;;;;13.63;100.00;100344.63;5043000;28;20035;-59
2022/10/17 03:46:25;;;;;;;3.63;0.82;;;;;;;13.66;100.00;100341.56;5039134;28;20506;-58
2022/10/17 03:48:50;;;;;;;4.03;0.55;;;;;;;13.69;100.00;100343.78;5042269;28;20048;-59
2022/10/17 03:51:16;;;;;;;5.95;0.85;;;;;;;13.72;100.00;100356.69;5045339;28;20033;-58
2022/10/17 03:53:41;;;;;;;6.30;0.88;;;;;;;13.70;100.00;100359.53;5046236;28;20025;-54
2022/10/17 03:56:16;;;;;;;4.80;0.40;;;;;;;13.72;100.00;100372.66;5036884;28;20144;-57
2022/10/17 03:58:41;;;;;;;6.90;0.57;;;;;;;13.69;100.00;100376.56;5036574;28;20356;-56
2022/10/17 04:01:08;;;;;;;7.93;0.63;;;;;;;13.68;100.00;100380.28;5038964;28;20487;-59
2022/10/17 04:03:34;;;;;;;19.80;3.22;;;;;;;13.65;100.00;100388.66;5037300;28;20120;-59
2022/10/17 04:06:00;;;;;;;6.45;0.55;;;;;;;13.65;100.00;100387.84;5041794;28;20108;-59
2022/10/17 04:08:26;;;;;;;4.53;0.60;;;;;;;13.67;100.00;100386.63;5038917;28;21489;-59
2022/10/17 04:10:56;;;;;;;7.22;0.82;;;;;;;13.69;100.00;100394.41;5040597;28;20573;-57
2022/10/17 04:13:21;;;;;;;3.03;0.28;;;;;;;13.72;100.00;100388.66;5040729;28;20040;-57
2022/10/17 04:16:09;;;;;;;3.25;1.90;;;;;;;13.73;100.00;100398.25;5034884;28;20029;-59
2022/10/17 04:18:35;;;;;;;6.10;0.43;;;;;;;13.68;100.00;100398.94;5039856;28;20039;-58
2022/10/17 04:21:05;;;;;;;10.70;0.60;;;;;;;13.69;100.00;100400.56;5040761;28;20464;-58
2022/10/17 04:23:30;;;;;;;4.57;0.73;;;;;;;13.62;100.00;100405.09;5036105;28;20483;-55
2022/10/17 04:25:56;;;;;;;6.93;1.10;;;;;;;13.64;100.00;100410.22;5045647;28;20039;-60
2022/10/17 04:28:22;;;;;;;3.58;0.43;;;;;;;13.65;100.00;100414.50;5035023;28;20072;-58
2022/10/17 04:30:55;;;;;;;6.85;0.65;;;;;;;13.66;100.00;100424.97;5040487;28;20502;-60
2022/10/17 04:33:20;;;;;;;5.95;1.05;;;;;;;13.62;100.00;100421.06;5040806;28;20029;-59
2022/10/17 04:36:00;;;;;;;2.38;1.08;;;;;;;13.61;100.00;100422.13;5037958;28;20064;-56
2022/10/17 04:38:27;;;;;;;3.97;0.20;;;;;;;13.62;100.00;100423.72;5037258;28;20048;-58
2022/10/17 04:40:52;;;;;;;3.67;1.15;;;;;;;13.62;100.00;100426.41;5047402;28;20064;-60
2022/10/17 04:43:18;;;;;;;3.22;1.02;;;;;;;13.65;100.00;100415.31;5036948;28;20052;-55
2022/10/17 04:45:43;;;;;;;3.60;0.35;;;;;;;13.65;100.00;100428.63;5036546;28;20498;-59
2022/10/17 04:48:09;;;;;;;1.30;0.17;;;;;;;13.64;100.00;100432.34;5042345;28;20029;-57
2022/10/17 04:50:34;;;;;;;3.83;0.50;;;;;;;13.64;100.00;100439.53;5046490;28;20036;-59
2022/10/17 04:53:00;;;;;;;8.00;0.98;;;;;;;13.64;100.00;100453.66;5041740;28;20029;-60
2022/10/17 04:55:25;;;;;;;5.70;0.55;;;;;;;13.62;100.00;100445.06;5039743;28;20060;-58
2022/10/17 04:57:50;;;;;;;5.28;0.13;;;;;;;13.56;100.00;100451.22;5036412;28;20533;-58
2022/10/17 05:00:16;;;;;;;3.50;0.52;;;;;;;13.51;100.00;100462.50;5044008;28;20074;-57
2022/10/17 05:02:41;;;;;;;1.27;0.20;;;;;;;13.51;100.00;100473.16;5043000;28;20033;-54
2022/10/17 05:05:07;;;;;;;5.18;0.95;;;;;;;13.48;100.00;100483.44;5041756;28;20029;-59
2022/10/17 05:07:33;;;;;;;3.53;0.90;;;;;;;13.45;100.00;100479.34;5035555;28;20083;-59
2022/10/17 05:09:58;;;;;;;7.57;0.77;;;;;;;13.42;100.00;100489.59;5041197;28;20386;-58
2022/10/17 05:12:24;;;;;;;6.40;0.80;;;;;;;13.42;100.00;100497.56;5045408;28;20025;-57
2022/10/17 05:14:50;;;;;;;3.40;0.17;;;;;;;13.39;100.00;100482.81;5049587;28;20103;-52
2022/10/17 05:17:15;;;;;;;4.70;1.35;;;;;;;13.39;100.00;100482.81;5034940;28;20467;-56
2022/10/17 05:19:40;;;;;;;5.70;0.63;;;;;;;13.41;100.00;100477.31;5034924;28;20550;-53
2022/10/17 05:22:06;;;;;;;6.75;1.27;;;;;;;13.43;100.00;100483.25;5045930;28;20052;-55
2022/10/17 05:24:31;;;;;;;3.72;0.60;;;;;;;13.44;100.00;100488.34;5035663;28;20037;-59
2022/10/17 05:26:56;;;;;;;3.83;0.20;;;;;;;13.44;100.00;100487.53;5044837;28;20029;-58
2022/10/17 05:29:22;;;;;;;2.00;0.80;;;;;;;13.44;100.00;100498.19;5035880;28;20037;-57
2022/10/17 05:31:47;;;;;;;2.88;0.55;;;;;;;13.43;100.00;100499.22;5038958;28;20029;-59
2022/10/17 05:34:13;;;;;;;3.28;0.20;;;;;;;13.41;100.00;100493.28;5037828;28;20029;-59
2022/10/17 05:36:38;;;;;;;2.70;0.15;;;;;;;13.42;100.00;100502.91;5037700;28;20064;-55
2022/10/17 05:39:03;;;;;;;8.27;0.60;;;;;;;13.41;100.00;100501.28;5039635;28;20032;-59
2022/10/17 05:41:29;;;;;;;1.27;0.70;;;;;;;13.43;100.00;100508.03;5038236;28;20036;-59
2022/10/17 05:43:54;;;;;;;6.25;0.60;;;;;;;13.44;100.00;100514.97;5034131;28;20065;-59
2022/10/17 05:46:19;;;;;;;4.25;0.65;;;;;;;13.46;100.00;100520.09;5036717;28;20114;-59
2022/10/17 05:48:45;;;;;;;4.35;1.02;;;;;;;13.45;100.00;100521.13;5042220;28;20127;-59
2022/10/17 05:51:10;;;;;;;10.02;0.95;;;;;;;13.43;100.00;100518.69;5033354;28;20498;-59
2022/10/17 05:53:39;;;;;;;3.40;1.20;;;;;;;13.41;100.00;100519.91;5041705;28;20025;-57
2022/10/17 05:56:07;;;;;;;5.63;0.95;;;;;;;13.34;100.00;100538.56;5035911;28;20025;-59
2022/10/17 05:58:33;;;;;;;4.65;0.47;;;;;;;13.33;100.00;100536.13;5036479;28;20622;-58
2022/10/17 06:01:04;;;;;;;3.88;0.20;;;;;;;13.33;100.00;100541.44;5044589;28;20029;-59
2022/10/17 06:03:30;;;;;;;5.25;0.70;;;;;;;13.33;100.00;100554.75;5030874;28;20124;-57
2022/10/17 06:05:55;;;;;;;7.22;0.85;;;;;;;13.33;100.00;100538.78;5036746;28;20162;-57
2022/10/17 06:08:21;;;;;;;10.63;1.27;;;;;;;13.27;100.00;100549.25;5028604;28;20108;-61
2022/10/17 06:10:50;;;;;;;9.48;1.23;;;;;;;13.25;100.00;100564.56;5030006;28;20052;-59
2022/10/17 06:13:16;;;;;;;1.83;0.30;;;;;;;13.28;100.00;100574.81;5035973;28;20033;-59
2022/10/17 06:15:42;;;;;;;3.30;0.82;;;;;;;13.30;100.00;100583.44;5038518;28;20029;-59
2022/10/17 06:18:08;;;;;;;13.43;0.40;;;;;;;13.28;100.00;100592.66;5036577;28;20024;-54
2022/10/17 06:20:33;;;;;;;7.05;1.65;;;;;;;13.24;100.00;100594.88;5034319;28;20037;-55
2022/10/17 06:22:58;;;;;;;8.23;1.23;;;;;;;13.21;100.00;100594.47;5039677;28;20043;-59
2022/10/17 06:25:24;;;;;;;5.88;1.02;;;;;;;13.14;100.00;100599.81;5031107;28;20033;-59
2022/10/17 06:27:50;;;;;;;3.45;1.05;;;;;;;13.10;100.00;100603.88;5032670;28;20132;-59
2022/10/17 06:30:15;;;;;;;8.95;1.45;;;;;;;13.09;100.00;100610.25;5031736;28;20041;-58
2022/10/17 06:32:40;;;;;;;2.17;0.88;;;;;;;13.07;100.00;100628.25;5027604;28;20087;-59
2022/10/17 06:35:06;;;;;;;9.48;0.60;;;;;;;13.07;100.00;100621.09;5037683;28;20450;-54
2022/10/17 06:37:32;;;;;;;1.10;0.65;;;;;;;13.08;100.00;100636.03;5037568;28;20083;-53
2022/10/17 06:39:58;;;;;;;6.45;1.75;;;;;;;13.06;100.00;100635.44;5017261;28;20076;-58
2022/10/17 06:42:23;;;;;;;2.90;0.50;;;;;;;13.04;100.00;100628.69;5026394;28;20442;-57
2022/10/17 06:44:48;;;;;;;8.73;2.17;;;;;;;13.03;100.00;100640.31;5030762;28;20048;-59
2022/10/17 06:47:14;;;;;;;8.25;0.22;;;;;;;13.03;100.00;100650.97;5034629;28;20033;-58
2022/10/17 06:49:39;;;;;;;6.90;0.43;;;;;;;13.00;100.00;100662.84;5037728;28;20326;-57
2022/10/17 06:52:05;;;;;;;3.13;0.40;;;;;;;12.98;100.00;100664.88;5040677;28;20105;-58
2022/10/17 06:54:30;;;;;;;7.32;2.50;;;;;;;12.96;100.00;100668.75;5033498;28;20074;-55
2022/10/17 06:56:56;;;;;;;7.95;1.60;;;;;;;12.96;100.00;100671.44;5036953;28;20473;-59
2022/10/17 06:59:21;;;;;;;11.30;1.10;;;;;;;12.93;100.00;100677.16;5045960;28;20036;-57
2022/10/17 07:01:46;;;;;;;5.68;1.10;;;;;;;12.93;100.00;100671.84;5037147;28;20029;-55
2022/10/17 07:04:12;;;;;;;3.47;0.57;;;;;;;12.94;100.00;100679.63;5041782;28;20031;-58
2022/10/17 07:06:37;;;;;;;3.47;0.65;;;;;;;12.92;100.00;100676.34;5043176;28;20053;-59
2022/10/17 07:09:05;;;;;;;4.85;0.60;;;;;;;12.92;100.00;100691.50;5038266;28;20068;-59
2022/10/17 07:11:32;;;;;;;2.83;1.10;;;;;;;12.91;100.00;100695.16;5038902;28;20111;-60
2022/10/17 07:13:57;;;;;;;3.90;0.63;;;;;;;12.88;100.00;100699.88;5039455;28;20025;-59
2022/10/17 07:16:23;;;;;;;9.32;0.50;;;;;;;12.87;100.00;100706.22;5036025;28;20037;-58
2022/10/17 07:18:50;;;;;;;8.25;0.57;;;;;;;12.87;100.00;100716.03;5039093;28;20025;-57
2022/10/17 07:21:15;;;;;;;3.80;0.38;;;;;;;12.86;100.00;100719.75;5038923;28;20108;-57
2022/10/17 07:23:41;;;;;;;4.68;0.40;;;;;;;12.84;100.00;100732.41;5042259;28;20194;-55
2022/10/17 07:26:09;;;;;;;2.58;1.80;;;;;;;12.83;100.00;100736.94;5046424;28;20032;-59
2022/10/17 07:28:36;;;;;;;7.82;1.42;;;;;;;12.84;100.00;100733.22;5042809;28;20391;-59
2022/10/17 07:31:09;;;;;;;5.82;1.00;;;;;;;12.91;100.00;100748.38;5045048;28;20026;-55
2022/10/17 07:33:35;;;;;;;6.93;1.33;;;;;;;12.98;100.00;100749.25;5047538;28;20033;-59
2022/10/17 07:36:01;;;;;;;5.05;1.15;;;;;;;13.05;100.00;100766.88;5048725;28;20048;-58
2022/10/17 07:38:27;;;;;;;12.90;1.92;;;;;;;13.08;100.00;100770.97;5049856;28;20380;-59
2022/10/17 07:40:57;;;;;;;6.80;0.52;;;;;;;13.12;100.00;100776.72;5047346;28;20035;-59
2022/10/17 07:43:24;;;;;;;10.60;1.98;;;;;;;13.14;100.00;100782.66;5050476;28;20037;-56
2022/10/17 07:45:51;;;;;;;1.65;0.47;;;;;;;13.16;100.00;100800.06;5046156;28;20052;-60
2022/10/17 07:48:17;;;;;;;16.10;1.08;;;;;;;13.16;100.00;100807.25;5032769;28;20029;-54
2022/10/17 07:50:42;;;;;;;5.32;0.75;;;;;;;13.16;100.00;100816.03;5040103;28;20048;-59
2022/10/17 07:53:08;;;;;;;11.18;2.45;;;;;;;13.17;100.00;100815.03;5038827;28;20067;-56
2022/10/17 07:55:33;;;;;;;6.65;1.50;;;;;;;13.20;100.00;100813.81;5039530;28;20044;-59
2022/10/17 07:58:01;;;;;;;7.15;0.70;;;;;;;13.25;100.00;100820.19;5046658;28;20032;-59
2022/10/17 08:00:26;;;;;;;5.00;0.32;;;;;;;13.28;100.00;100819.00;5046569;28;20025;-59
2022/10/17 08:02:52;;;;;;;7.80;1.67;;;;;;;13.31;100.00;100819.41;5041174;28;20032;-51
2022/10/17 08:05:17;;;;;;;5.82;1.75;;;;;;;13.31;100.00;100811.41;5039123;28;20274;-55
2022/10/17 08:07:42;;;;;;;5.38;0.90;;;;;;;13.32;100.00;100812.25;5045665;28;20548;-59
2022/10/17 08:10:11;;;;;;;6.55;0.52;;;;;;;13.39;100.00;100814.91;5039870;28;20033;-55
2022/10/17 08:12:36;;;;;;;6.05;1.27;;;;;;;13.43;100.00;100822.31;5045060;28;20490;-58
2022/10/17 08:15:02;;;;;;;7.85;1.40;;;;;;;13.51;100.00;100814.13;5042014;28;20033;-53
2022/10/17 08:17:28;;;;;;;14.70;2.75;;;;;;;13.57;100.00;100823.16;5045957;28;20075;-57
2022/10/17 08:19:53;;;;;;;5.93;0.85;;;;;;;13.60;100.00;100828.06;5045934;28;20102;-57
2022/10/17 08:22:19;;;;;;;9.48;0.63;;;;;;;13.60;100.00;100835.25;5044823;28;20028;-58
2022/10/17 08:24:45;;;;;;;7.85;1.27;;;;;;;13.60;100.00;100832.59;5038989;28;20036;-55
2022/10/17 08:27:12;;;;;;;9.95;1.75;;;;;;;13.59;100.00;100845.09;5040634;28;20048;-55
2022/10/17 08:29:38;;;;;;;6.57;1.13;;;;;;;13.60;100.00;100854.72;5038788;28;20030;-51
2022/10/17 08:32:05;;;;;;;13.57;2.70;;;;;;;13.61;100.00;100850.22;5040486;28;20030;-51
2022/10/17 08:34:30;;;;;;;9.52;3.22;;;;;;;13.63;100.00;100853.50;5049142;28;20397;-57
2022/10/17 08:36:56;;;;;;;7.22;1.65;;;;;;;13.65;100.00;100846.94;5039154;28;20028;-57
2022/10/17 08:39:21;;;;;;;5.32;1.65;;;;;;;13.65;100.00;100852.25;5045451;28;20108;-55
2022/10/17 08:41:58;;;;;;;4.07;1.83;;;;;;;13.64;100.00;100855.97;5037624;28;20017;-57
2022/10/17 08:44:47;;;;;;;15.45;2.10;;;;;;;13.69;100.00;100863.38;5042043;28;20107;-56
2022/10/17 08:47:26;;;;;;;9.02;1.35;;;;;;;13.70;100.00;100862.31;5044819;28;20029;-57
2022/10/17 08:49:57;;;;;;;10.43;1.27;;;;;;;13.73;100.00;100870.75;5033073;28;20561;-55
2022/10/17 08:52:54;;;;;;;4.43;1.67;;;;;;;13.78;100.00;100875.44;5030750;28;20120;-55
2022/10/17 08:55:32;;;;;;;7.85;1.58;;;;;;;13.82;100.00;100897.22;5024864;28;20052;-57
2022/10/17 08:57:57;;;;;;;14.35;2.05;;;;;;;13.83;100.00;100904.16;5033427;28;20022;-51
2022/10/17 09:00:24;;;;;;;8.70;1.77;;;;;;;13.88;100.00;100907.06;5038065;28;20028;-53
2022/10/17 09:03:29;;;;;;;5.35;0.85;;;;;;;13.94;100.00;100911.59;5035329;28;20017;-54
2022/10/17 09:06:06;;;;;;;7.60;1.40;;;;;;;13.97;100.00;100911.19;5030212;28;20057;-57
2022/10/17 09:08:51;;;;;;;7.50;0.85;;;;;;;14.02;100.00;100919.41;5042038;28;20446;-57
2022/10/17 09:11:32;;;;;;;16.33;2.08;;;;;;;14.02;100.00;100919.41;5040790;28;20033;-52
2022/10/17 09:14:20;;;;;;;4.63;0.98;;;;;;;14.06;100.00;100925.94;5048974;28;20087;-55
2022/10/17 09:17:14;;;;;;;3.97;1.35;;;;;;;14.22;100.00;100921.25;5039405;28;20124;-57
2022/10/17 09:19:45;;;;;;;4.80;0.80;;;;;;;14.31;100.00;100928.84;5041751;28;20029;-57
2022/10/17 09:22:22;;;;;;;6.35;0.68;;;;;;;14.51;100.00;100931.53;5037213;28;20025;-56
2022/10/17 09:25:02;;;;;;;6.68;1.65;;;;;;;14.64;100.00;100929.88;5040051;28;20107;-57
2022/10/17 09:27:43;;;;;;;12.07;2.15;;;;;;;14.85;100.00;100945.69;5040496;28;20377;-53
2022/10/17 09:30:31;;;;;;;18.65;1.90;;;;;;;14.90;100.00;100945.06;5039006;28;20421;-54
2022/10/17 09:32:57;;;;;;;11.38;2.78;;;;;;;15.00;100.00;100935.59;5042733;28;20029;-55
2022/10/17 09:35:24;;;;;;;13.05;2.25;;;;;;;15.00;100.00;100934.78;5041872;28;20425;-56
2022/10/17 09:37:51;;;;;;;8.30;1.27;;;;;;;15.05;100.00;100938.47;5041754;28;20052;-54
2022/10/17 09:40:36;;;;;;;7.72;1.65;;;;;;;15.21;100.00;100937.19;5041100;28;20133;-55
2022/10/17 09:43:06;;;;;;;8.85;1.42;;;;;;;15.20;100.00;100930.19;5039865;28;20341;-52
2022/10/17 09:45:42;;;;;;;7.75;1.30;;;;;;;15.00;100.00;100932.94;5031857;28;20146;-56
2022/10/17 09:48:34;;;;;;;6.47;1.40;;;;;;;14.80;100.00;100940.97;5038626;28;20513;-53
2022/10/17 09:50:59;;;;;;;;;;;;;;;14.78;100.00;100942.19;5045585;28;20037;-54
2022/10/17 09:53:37;;;;;;;13.52;2.13;;;;;;;14.76;100.00;100937.06;5043749;28;19927;-56
2022/10/17 09:56:09;;;;;;;8.88;1.50;;;;;;;14.98;100.00;100942.19;5034102;28;20022;-54
2022/10/17 09:58:55;;;;;;;10.50;1.17;;;;;;;15.27;100.00;100956.88;5036623;28;20049;-54
2022/10/17 10:01:29;;;;;;;6.45;1.00;;;;;;;15.20;100.00;100954.22;5037092;28;20489;-50
2022/10/17 10:04:16;;;;;;;11.07;1.25;;;;;;;15.30;100.00;100959.13;5034516;28;20025;-51
2022/10/17 10:07:01;;;;;;;5.30;1.73;;;;;;;15.47;100.00;100952.28;5040605;28;20064;-54
2022/10/17 10:09:30;;;;;;;8.00;0.98;;;;;;;15.55;100.00;100967.28;5037208;28;20030;-54
2022/10/17 10:11:57;;;;;;;8.32;0.88;;;;;;;15.53;100.00;100955.16;5042689;28;20075;-56
2022/10/17 10:14:32;;;;;;;13.98;2.22;;;;;;;15.56;100.00;100966.22;5043774;28;20033;-52
2022/10/17 10:16:58;;;;;;;8.52;1.58;;;;;;;15.45;100.00;100965.03;5038063;28;20033;-58
2022/10/17 10:19:31;;;;;;;13.80;2.40;;;;;;;15.30;100.00;100975.16;5042038;28;20048;-53
2022/10/17 10:22:17;;;;;;;17.05;5.88;;;;;;;15.34;100.00;100979.06;5033031;28;20506;-55
2022/10/17 10:24:42;;;;;;;15.23;3.65;;;;;;;15.38;100.00;100985.59;5037484;28;20080;-55
2022/10/17 10:27:16;;;;;;;20.13;6.68;;;;;;;15.38;100.00;101003.50;5036195;28;20025;-52
2022/10/17 10:29:48;;;;;;;13.75;4.45;;;;;;;15.51;100.00;101013.34;5034866;28;20033;-53
2022/10/17 10:32:29;;;;;;;21.85;8.38;;;;;;;15.46;100.00;101004.09;5030330;28;20021;-52
2022/10/17 10:35:19;;;;;;;15.32;2.47;;;;;;;15.42;100.00;101008.22;5032277;28;20112;-54
2022/10/17 10:37:52;;;;;;;25.77;8.98;;;;;;;15.26;100.00;101030.06;5031640;28;20387;-57
2022/10/17 10:40:19;;;;;;;22.08;9.23;;;;;;;15.22;100.00;101026.16;5029843;28;20021;-52
2022/10/17 10:42:49;;;;;;;25.90;10.77;;;;;;;15.19;100.00;101039.91;5037094;28;20097;-56
2022/10/17 10:45:21;;;;;;;11.57;3.00;;;;;;;15.16;100.00;101025.13;5040787;28;20017;-54
2022/10/17 10:48:01;;;;;;;12.63;2.45;;;;;;;15.10;100.00;101020.63;5036615;28;20029;-54
2022/10/17 10:50:37;;;;;;;11.15;0.88;;;;;;;15.24;100.00;101016.06;5038065;28;20095;-55
2022/10/17 10:53:18;;;;;;;5.65;1.17;;;;;;;15.32;100.00;101017.72;5034955;28;20109;-55
2022/10/17 10:55:49;;;;;;;9.10;1.05;;;;;;;15.27;100.00;101012.97;5038376;28;20448;-49
2022/10/17 10:58:33;;;;;;;;;;;;;;;15.30;100.00;101017.91;5043808;28;20390;-51
2022/10/17 11:01:04;;;;;;;7.82;0.88;;;;;;;15.55;100.00;101033.28;5017700;28;19928;-54
2022/10/17 11:03:40;;;;;;;5.78;0.90;;;;;;;15.52;100.00;101039.03;5034825;28;20044;-55
2022/10/17 11:06:17;;;;;;;9.98;1.27;;;;;;;15.33;100.00;101032.69;5037578;28;20030;-51
2022/10/17 11:08:58;;;;;;;3.17;0.40;;;;;;;15.18;100.00;101040.94;5033281;28;20427;-54
2022/10/17 11:11:43;;;;;;;6.57;0.65;;;;;;;15.32;100.00;101058.59;5033603;28;20112;-54
2022/10/17 11:14:17;;;;;;;10.25;1.85;;;;;;;15.57;100.00;101052.59;5042414;28;20032;-52
2022/10/17 11:16:52;;;;;;;10.13;2.40;;;;;;;15.98;100.00;101046.06;5030561;28;20112;-54
2022/10/17 11:19:27;;;;;;;4.57;1.45;;;;;;;16.21;100.00;101056.25;5035914;28;20029;-51
2022/10/17 11:22:20;;;;;;;10.68;1.95;;;;;;;16.47;100.00;101047.25;5035909;28;20048;-52
2022/10/17 11:24:55;;;;;;;11.77;1.83;;;;;;;16.46;100.00;101059.00;5030683;28;20374;-55
2022/10/17 11:27:23;;;;;;;4.25;0.52;;;;;;;16.63;100.00;101046.75;5037862;28;20568;-52
2022/10/17 11:29:49;;;;;;;7.03;1.25;;;;;;;16.98;100.00;101048.94;5040517;28;20025;-55
2022/10/17 11:32:37;;;;;;;11.55;0.65;;;;;;;17.27;100.00;101034.06;5036460;28;20489;-46